Time;durP1;ratioP1;P1;durP2;ratioP2;P2;SDS_P1;SDS_P2;PMS_P1;PMS_P2;Temp;Humidity;BMP_temperature;BMP_pressure;BME280_temperature;BME280_humidity;BME280_pressure;Samples;Min_cycle;Max_cycle;Signal;HPM_P1;HPM_P2
2023/11/09 00:01:06;;;;;;;2.90;1.10;;;;;;;;;;10233993;29;20078;-76
2023/11/09 00:06:10;;;;;;;2.22;0.90;;;;;;;;;;10225272;29;20055;-76
2023/11/09 00:11:14;;;;;;;1.70;0.90;;;;;;;;;;10223428;29;20044;-76
2023/11/09 00:16:18;;;;;;;2.42;1.02;;;;;;;;;;10230049;29;20121;-76
2023/11/09 00:21:21;;;;;;;2.55;0.93;;;;;;;;;;10232485;28;20062;-76
2023/11/09 00:26:25;;;;;;;1.15;0.85;;;;;;;;;;10232550;29;20066;-76
2023/11/09 00:31:30;;;;;;;1.50;0.80;;;;;;;;;;10232118;29;20073;-76
2023/11/09 00:36:34;;;;;;;3.75;0.70;;;;;;;;;;10226246;29;20058;-76
2023/11/09 00:41:39;;;;;;;0.85;0.63;;;;;;;;;;10227904;29;20059;-76
2023/11/09 00:46:43;;;;;;;1.45;0.90;;;;;;;;;;10220724;29;20077;-75
2023/11/09 00:51:47;;;;;;;1.42;0.70;;;;;;;;;;10238780;23;20059;-75
2023/11/09 00:56:50;;;;;;;2.15;0.90;;;;;;;;;;10216923;29;20058;-75
2023/11/09 01:01:55;;;;;;;1.95;1.00;;;;;;;;;;10220793;29;20068;-75
2023/11/09 01:06:58;;;;;;;1.08;0.70;;;;;;;;;;10217188;29;22517;-75
2023/11/09 01:12:01;;;;;;;1.38;0.90;;;;;;;;;;10214248;29;20067;-75
2023/11/09 01:17:06;;;;;;;1.98;0.70;;;;;;;;;;10212131;29;20047;-75
2023/11/09 01:22:10;;;;;;;1.77;1.20;;;;;;;;;;10229143;28;20143;-75
2023/11/09 01:27:13;;;;;;;2.30;1.10;;;;;;;;;;10221526;29;20048;-75
2023/11/09 01:32:18;;;;;;;1.33;0.75;;;;;;;;;;10224753;28;20055;-75
2023/11/09 01:37:21;;;;;;;1.60;0.95;;;;;;;;;;10223012;28;20048;-75
2023/11/09 01:42:24;;;;;;;3.70;1.17;;;;;;;;;;10211474;28;20048;-75
2023/11/09 01:47:29;;;;;;;1.42;1.10;;;;;;;;;;10205880;28;20059;-75
2023/11/09 01:52:33;;;;;;;1.92;1.15;;;;;;;;;;10205520;28;20051;-75
2023/11/09 01:57:39;;;;;;;3.65;1.00;;;;;;;;;;10227334;28;20150;-75
2023/11/09 02:02:44;;;;;;;1.60;1.00;;;;;;;;;;10214548;29;20443;-75
2023/11/09 02:07:47;;;;;;;1.85;0.80;;;;;;;;;;10208323;29;20057;-75
2023/11/09 02:12:51;;;;;;;1.70;0.98;;;;;;;;;;10203667;29;20040;-75
2023/11/09 02:17:56;;;;;;;1.52;0.65;;;;;;;;;;10195516;29;20056;-75
2023/11/09 02:23:04;;;;;;;1.35;0.80;;;;;;;;;;10194306;29;20142;-75
2023/11/09 02:28:10;;;;;;;1.05;0.65;;;;;;;;;;10191639;29;20044;-75
2023/11/09 02:33:13;;;;;;;2.35;1.00;;;;;;;;;;10197564;29;20056;-75
2023/11/09 02:38:17;;;;;;;2.45;1.10;;;;;;;;;;10177257;29;20048;-75
2023/11/09 02:43:22;;;;;;;1.25;0.80;;;;;;;;;;10181882;29;20438;-75
2023/11/09 02:48:25;;;;;;;1.58;1.00;;;;;;;;;;10195175;29;20815;-75
2023/11/09 02:53:29;;;;;;;1.35;0.80;;;;;;;;;;10194413;29;20047;-75
2023/11/09 02:58:34;;;;;;;1.95;0.90;;;;;;;;;;10201231;29;20134;-75
2023/11/09 03:03:37;;;;;;;2.13;1.42;;;;;;;;;;10177057;29;20048;-75
2023/11/09 03:08:41;;;;;;;1.88;1.08;;;;;;;;;;10196194;29;20059;-75
2023/11/09 03:13:46;;;;;;;1.77;0.88;;;;;;;;;;10199423;29;20043;-75
2023/11/09 03:18:49;;;;;;;0.60;0.60;;;;;;;;;;10181414;29;20079;-75
2023/11/09 03:23:53;;;;;;;0.98;0.60;;;;;;;;;;10197487;28;20040;-75
2023/11/09 03:28:57;;;;;;;2.45;1.20;;;;;;;;;;10175804;28;20056;-75
2023/11/09 03:34:00;;;;;;;1.13;0.88;;;;;;;;;;10196399;28;20047;-75
2023/11/09 03:39:04;;;;;;;3.05;0.90;;;;;;;;;;10194492;29;20169;-75
2023/11/09 03:44:09;;;;;;;1.98;1.15;;;;;;;;;;10197900;29;20050;-75
2023/11/09 03:49:12;;;;;;;2.30;1.10;;;;;;;;;;10197228;29;20501;-75
2023/11/09 03:54:15;;;;;;;0.90;0.85;;;;;;;;;;10196415;29;20135;-75
2023/11/09 03:59:20;;;;;;;1.25;0.90;;;;;;;;;;10207709;29;20127;-75
2023/11/09 04:04:24;;;;;;;1.27;0.75;;;;;;;;;;10209434;29;20048;-75
2023/11/09 04:09:27;;;;;;;1.40;0.70;;;;;;;;;;10209023;29;20075;-75
2023/11/09 04:14:31;;;;;;;1.83;0.95;;;;;;;;;;10209901;29;20577;-75
2023/11/09 04:19:35;;;;;;;1.27;0.90;;;;;;;;;;10218807;28;20055;-75
2023/11/09 04:24:39;;;;;;;1.45;0.82;;;;;;;;;;10243171;28;20093;-75
2023/11/09 04:29:44;;;;;;;1.13;0.98;;;;;;;;;;10236425;29;20578;-75
2023/11/09 04:34:47;;;;;;;2.80;1.10;;;;;;;;;;10236466;28;20051;-75
2023/11/09 04:39:57;;;;;;;1.80;1.15;;;;;;;;;;10241880;28;20134;-75
2023/11/09 04:45:03;;;;;;;1.17;0.77;;;;;;;;;;10237242;28;20051;-75
2023/11/09 04:50:13;;;;;;;1.27;1.00;;;;;;;;;;10229885;28;20048;-75
2023/11/09 04:55:24;;;;;;;1.02;0.77;;;;;;;;;;10231725;29;20111;-75
2023/11/09 05:11:22;;;;;;;0.80;0.70;;;;;;;;;;10221898;29;20052;-75
2023/11/09 05:16:26;;;;;;;1.58;0.82;;;;;;;;;;10220581;29;20040;-75
2023/11/09 05:21:30;;;;;;;1.38;0.85;;;;;;;;;;10230527;29;20071;-75
2023/11/09 05:26:36;;;;;;;1.08;0.90;;;;;;;;;;10230876;29;20511;-75
2023/11/09 05:31:42;;;;;;;;;;;;;;;;;;10241806;29;20087;-75
2023/11/09 05:36:45;;;;;;;1.30;1.00;;;;;;;;;;10232969;29;19922;-74
2023/11/09 05:41:51;;;;;;;3.42;1.55;;;;;;;;;;10235687;29;20052;-75
2023/11/09 05:46:56;;;;;;;1.80;1.10;;;;;;;;;;10229730;29;20052;-75
2023/11/09 05:51:59;;;;;;;1.13;1.00;;;;;;;;;;10205314;29;20043;-75
2023/11/09 05:57:02;;;;;;;1.00;0.85;;;;;;;;;;10228995;28;20075;-76
2023/11/09 06:02:07;;;;;;;0.80;0.70;;;;;;;;;;10224454;28;20055;-76
2023/11/09 06:07:11;;;;;;;0.88;0.70;;;;;;;;;;10215321;28;20504;-76
2023/11/09 06:12:15;;;;;;;1.30;0.80;;;;;;;;;;10237695;29;20571;-76
2023/11/09 06:17:21;;;;;;;2.28;0.93;;;;;;;;;;10223992;29;20203;-76
2023/11/09 06:22:25;;;;;;;1.92;1.08;;;;;;;;;;10232149;29;20167;-77
2023/11/09 06:27:28;;;;;;;1.38;0.90;;;;;;;;;;10215771;29;20158;-77
2023/11/09 06:32:33;;;;;;;1.65;0.70;;;;;;;;;;10233696;29;20048;-77
2023/11/09 06:37:37;;;;;;;0.98;0.90;;;;;;;;;;10222945;29;20087;-77
2023/11/09 06:42:40;;;;;;;0.90;0.70;;;;;;;;;;10209015;29;20063;-77
2023/11/09 06:47:48;;;;;;;3.28;1.15;;;;;;;;;;10216141;29;20051;-77
2023/11/09 06:52:55;;;;;;;2.50;0.90;;;;;;;;;;10232731;29;20073;-77
2023/11/09 06:57:58;;;;;;;0.90;0.90;;;;;;;;;;10223835;29;20139;-78
2023/11/09 07:03:04;;;;;;;1.13;0.90;;;;;;;;;;10222522;29;20043;-77
2023/11/09 07:08:08;;;;;;;0.75;0.70;;;;;;;;;;10217207;29;20123;-77
2023/11/09 07:13:11;;;;;;;1.10;0.73;;;;;;;;;;10234025;29;20589;-77
2023/11/09 07:18:16;;;;;;;1.30;0.73;;;;;;;;;;10227357;29;20157;-78
2023/11/09 07:23:24;;;;;;;0.70;0.60;;;;;;;;;;10225952;29;20166;-77
2023/11/09 07:28:28;;;;;;;0.70;0.50;;;;;;;;;;10224921;28;20051;-77
2023/11/09 07:33:33;;;;;;;0.60;0.60;;;;;;;;;;10193976;29;20151;-78
2023/11/09 07:38:36;;;;;;;1.00;0.90;;;;;;;;;;10219893;29;20055;-77
2023/11/09 07:43:40;;;;;;;1.02;0.52;;;;;;;;;;10226290;29;20057;-78
2023/11/09 07:48:44;;;;;;;1.33;0.70;;;;;;;;;;10224333;29;20048;-77
2023/11/09 07:53:47;;;;;;;1.20;0.70;;;;;;;;;;10227203;29;20162;-77
2023/11/09 07:58:51;;;;;;;0.73;0.65;;;;;;;;;;10222174;29;20580;-77
2023/11/09 08:03:57;;;;;;;0.68;0.60;;;;;;;;;;10213101;29;20449;-77
2023/11/09 08:09:04;;;;;;;0.45;0.45;;;;;;;;;;10225957;28;20047;-77
2023/11/09 08:19:39;;;;;;;1.27;0.80;;;;;;;;;;10055094;27;20147;-76
2023/11/09 08:24:43;;;;;;;0.70;0.60;;;;;;;;;;10233762;29;20083;-76
2023/11/09 08:29:51;;;;;;;0.80;0.60;;;;;;;;;;10221914;29;20044;-76
2023/11/09 08:34:58;;;;;;;0.73;0.73;;;;;;;;;;10214279;29;20062;-76
2023/11/09 08:40:27;;;;;;;3.38;1.70;;;;;;;;;;10221584;29;20058;-77
2023/11/09 08:45:44;;;;;;;2.22;1.20;;;;;;;;;;10223396;29;20448;-76
2023/11/09 08:51:10;;;;;;;0.77;0.70;;;;;;;;;;10231016;29;20048;-76
2023/11/09 09:03:22;;;;;;;;;;;;;;;;;;;;;
2023/11/09 09:08:57;;;;;;;0.50;0.50;;;;;;;;;;10223820;29;20047;-76
2023/11/09 09:14:04;;;;;;;0.70;0.50;;;;;;;;;;10236700;29;20040;-76
2023/11/09 09:19:12;;;;;;;0.70;0.40;;;;;;;;;;10216997;29;20581;-76
2023/11/09 09:24:18;;;;;;;0.57;0.57;;;;;;;;;;10235353;29;20063;-76
2023/11/09 09:29:27;;;;;;;0.68;0.40;;;;;;;;;;10233260;29;20562;-76
2023/11/09 09:35:10;;;;;;;0.63;0.50;;;;;;;;;;10237881;29;20062;-76
2023/11/09 09:40:19;;;;;;;0.25;0.25;;;;;;;;;;10225621;29;20047;-76
2023/11/09 09:45:46;;;;;;;0.40;0.40;;;;;;;;;;10222799;29;20151;-76
2023/11/09 09:50:55;;;;;;;0.30;0.30;;;;;;;;;;10244855;29;20462;-76
2023/11/09 10:01:52;;;;;;;0.30;0.30;;;;;;;;;;10178911;29;20382;-77
2023/11/09 10:07:08;;;;;;;0.20;0.20;;;;;;;;;;10194225;29;20115;-76
2023/11/09 10:19:17;;;;;;;0.45;0.40;;;;;;;;;;10170465;29;20493;-76
2023/11/09 10:24:33;;;;;;;0.47;0.30;;;;;;;;;;10199298;23;20070;-76
2023/11/09 10:29:58;;;;;;;0.20;0.20;;;;;;;;;;10250553;28;20058;-76
2023/11/09 10:56:19;;;;;;;0.38;0.30;;;;;;;;;;10037836;29;20063;-76
2023/11/09 11:08:44;;;;;;;0.20;0.20;;;;;;;;;;9940336;29;20059;-76
2023/11/09 11:20:40;;;;;;;0.20;0.20;;;;;;;;;;9999175;29;20178;-76
2023/11/09 11:26:10;;;;;;;;;;;;;;;;;;;;;
2023/11/09 11:31:59;;;;;;;0.30;0.30;;;;;;;;;;10105835;29;20053;-76
2023/11/09 11:44:33;;;;;;;0.20;0.20;;;;;;;;;;10159420;29;20047;-76
2023/11/09 12:16:37;;;;;;;0.20;0.20;;;;;;;;;;9946651;29;20744;-77
2023/11/09 12:22:07;;;;;;;0.55;0.20;;;;;;;;;;10064949;29;20102;-76
2023/11/09 12:28:04;;;;;;;0.35;0.20;;;;;;;;;;10062535;29;20564;-76
2023/11/09 12:40:26;;;;;;;0.60;0.40;;;;;;;;;;10216731;28;20075;-76
2023/11/09 12:46:36;;;;;;;0.43;0.30;;;;;;;;;;10198209;29;20386;-76
2023/11/09 12:52:17;;;;;;;0.20;0.20;;;;;;;;;;10246900;23;20047;-77
2023/11/09 12:57:22;;;;;;;0.95;0.40;;;;;;;;;;10179652;29;20065;-77
2023/11/09 13:02:42;;;;;;;0.32;0.30;;;;;;;;;;10186621;29;20051;-77
2023/11/09 13:07:47;;;;;;;0.40;0.20;;;;;;;;;;10175629;29;20039;-77
2023/11/09 13:12:52;;;;;;;0.80;0.30;;;;;;;;;;10176625;29;20130;-77
2023/11/09 13:17:57;;;;;;;1.20;0.50;;;;;;;;;;10175861;29;20048;-77
2023/11/09 13:23:07;;;;;;;3.20;0.70;;;;;;;;;;10174127;29;20067;-77
2023/11/09 13:28:13;;;;;;;1.10;0.55;;;;;;;;;;10190657;29;20040;-77
2023/11/09 13:33:29;;;;;;;1.30;0.45;;;;;;;;;;10179643;29;20524;-77
2023/11/09 13:38:43;;;;;;;1.10;0.38;;;;;;;;;;10196197;29;20440;-77
2023/11/09 13:43:59;;;;;;;1.13;0.40;;;;;;;;;;10183291;29;20119;-77
2023/11/09 13:49:17;;;;;;;1.27;0.50;;;;;;;;;;10182818;29;20044;-77
2023/11/09 13:54:27;;;;;;;0.82;0.50;;;;;;;;;;10180885;29;20408;-77
2023/11/09 13:59:31;;;;;;;2.60;0.73;;;;;;;;;;10194033;29;20060;-77
2023/11/09 14:04:34;;;;;;;1.50;0.70;;;;;;;;;;10185566;29;20074;-77
2023/11/09 14:09:42;;;;;;;3.72;1.00;;;;;;;;;;10165364;29;20103;-77
2023/11/09 14:14:48;;;;;;;1.67;0.50;;;;;;;;;;10183478;29;20505;-77
2023/11/09 14:19:53;;;;;;;2.37;0.70;;;;;;;;;;10178100;29;20060;-77
2023/11/09 14:24:58;;;;;;;3.77;0.80;;;;;;;;;;10185042;29;20509;-77
2023/11/09 14:30:01;;;;;;;1.58;0.68;;;;;;;;;;10181008;29;20516;-77
2023/11/09 14:35:05;;;;;;;2.42;0.90;;;;;;;;;;10182163;29;20047;-77
2023/11/09 14:40:13;;;;;;;1.88;0.68;;;;;;;;;;10182214;29;20513;-77
2023/11/09 14:45:18;;;;;;;5.93;1.48;;;;;;;;;;10182629;29;20056;-77
2023/11/09 14:50:21;;;;;;;3.72;1.25;;;;;;;;;;10192347;29;20052;-75
2023/11/09 14:55:30;;;;;;;4.20;1.38;;;;;;;;;;10171979;29;20087;-77
2023/11/09 15:00:36;;;;;;;4.22;0.90;;;;;;;;;;10187416;29;20040;-75
2023/11/09 15:05:43;;;;;;;3.05;0.75;;;;;;;;;;10177144;29;20549;-77
2023/11/09 15:10:48;;;;;;;2.45;1.10;;;;;;;;;;10169576;29;20056;-77
2023/11/09 15:15:53;;;;;;;1.17;0.80;;;;;;;;;;10149718;29;20427;-77
2023/11/09 15:20:58;;;;;;;1.75;0.82;;;;;;;;;;10165327;29;20044;-75
2023/11/09 15:26:05;;;;;;;2.00;0.98;;;;;;;;;;10166262;29;20052;-75
2023/11/09 15:31:10;;;;;;;1.73;0.70;;;;;;;;;;10142924;29;20124;-76
2023/11/09 15:36:14;;;;;;;2.60;0.73;;;;;;;;;;10164533;29;20139;-77
2023/11/09 15:41:19;;;;;;;3.53;0.70;;;;;;;;;;10167319;29;20067;-77
2023/11/09 15:46:22;;;;;;;1.73;0.57;;;;;;;;;;10158832;29;20084;-76
2023/11/09 15:51:30;;;;;;;1.83;0.65;;;;;;;;;;10161355;29;20320;-77
2023/11/09 15:56:36;;;;;;;2.05;0.50;;;;;;;;;;10160042;29;20505;-76
2023/11/09 16:01:40;;;;;;;2.17;0.73;;;;;;;;;;10155806;29;20063;-77
2023/11/09 16:06:44;;;;;;;2.05;0.73;;;;;;;;;;10179361;29;20494;-77
2023/11/09 16:11:50;;;;;;;1.20;0.47;;;;;;;;;;10174221;29;20123;-76
2023/11/09 16:16:54;;;;;;;1.92;0.70;;;;;;;;;;10177881;29;20060;-77
2023/11/09 16:21:57;;;;;;;3.28;1.30;;;;;;;;;;10177640;29;20060;-77
2023/11/09 16:27:03;;;;;;;5.68;2.42;;;;;;;;;;10192072;29;20115;-77
2023/11/09 16:32:06;;;;;;;3.53;2.00;;;;;;;;;;10194134;29;20052;-76
2023/11/09 16:37:09;;;;;;;2.42;1.35;;;;;;;;;;10174917;29;20050;-76
2023/11/09 16:42:14;;;;;;;6.95;1.83;;;;;;;;;;10170066;29;20061;-76
2023/11/09 16:47:17;;;;;;;3.97;1.25;;;;;;;;;;10180316;29;20057;-75
2023/11/09 16:52:21;;;;;;;3.70;1.00;;;;;;;;;;10168846;29;20064;-76
2023/11/09 16:57:25;;;;;;;1.83;0.93;;;;;;;;;;10235988;23;20953;-76
2023/11/09 17:02:29;;;;;;;2.90;1.20;;;;;;;;;;10257805;28;20046;-76
2023/11/09 17:07:40;;;;;;;2.17;1.00;;;;;;;;;;10245359;28;20047;-76
2023/11/09 17:12:47;;;;;;;3.25;1.02;;;;;;;;;;10257997;28;20051;-76
2023/11/09 17:18:00;;;;;;;3.85;1.30;;;;;;;;;;10218968;28;20039;-76
2023/11/09 17:23:07;;;;;;;2.40;0.90;;;;;;;;;;10229000;28;20447;-76
2023/11/09 17:28:12;;;;;;;1.73;0.82;;;;;;;;;;10273588;28;20049;-76
2023/11/09 17:33:22;;;;;;;2.70;1.02;;;;;;;;;;10222436;28;20137;-77
2023/11/09 17:38:34;;;;;;;4.53;1.60;;;;;;;;;;10263692;28;20118;-77
2023/11/09 17:43:43;;;;;;;4.63;1.38;;;;;;;;;;10271726;28;20058;-77
2023/11/09 17:48:49;;;;;;;3.42;1.48;;;;;;;;;;10276766;28;20104;-76
2023/11/09 17:54:03;;;;;;;4.47;1.20;;;;;;;;;;10281008;28;20130;-76
2023/11/09 17:59:16;;;;;;;4.57;1.40;;;;;;;;;;10264510;28;20377;-76
2023/11/09 18:04:53;;;;;;;4.35;1.63;;;;;;;;;;10259798;28;20055;-77
2023/11/09 18:09:57;;;;;;;7.45;1.98;;;;;;;;;;10265716;28;20047;-77
2023/11/09 18:39:47;;;;;;;3.20;1.25;;;;;;;;;;10151080;29;20056;-76
2023/11/09 18:57:46;;;;;;;2.88;1.42;;;;;;;;;;10193128;29;20389;-76
2023/11/09 19:03:02;;;;;;;7.90;1.88;;;;;;;;;;10159076;29;20088;-76
2023/11/09 19:09:05;;;;;;;3.13;1.42;;;;;;;;;;10168740;29;20449;-75
2023/11/09 19:31:43;;;;;;;8.02;1.65;;;;;;;;;;10310123;23;20065;-75
2023/11/09 19:36:47;;;;;;;5.67;1.73;;;;;;;;;;10078703;29;20048;-75
2023/11/09 19:41:50;;;;;;;5.32;1.88;;;;;;;;;;10118341;29;20083;-76
2023/11/09 19:54:33;;;;;;;4.22;1.25;;;;;;;;;;10076461;29;20057;-76
2023/11/09 20:18:35;;;;;;;2.95;1.38;;;;;;;;;;10134872;23;20056;-84
2023/11/09 20:23:39;;;;;;;2.60;0.90;;;;;;;;;;10137378;29;20048;-84
2023/11/09 20:28:42;;;;;;;2.47;1.25;;;;;;;;;;10138441;29;20056;-83
2023/11/09 20:33:47;;;;;;;1.42;0.88;;;;;;;;;;10161441;29;20702;-83
2023/11/09 20:38:51;;;;;;;1.00;0.70;;;;;;;;;;10138071;29;20056;-83
2023/11/09 20:43:55;;;;;;;1.85;1.00;;;;;;;;;;10151790;29;20071;-84
2023/11/09 20:49:00;;;;;;;2.47;0.90;;;;;;;;;;10152112;29;20056;-83
2023/11/09 20:54:04;;;;;;;2.63;0.90;;;;;;;;;;10171150;29;20049;-84
2023/11/09 20:59:09;;;;;;;2.33;0.73;;;;;;;;;;10135664;29;20324;-80
2023/11/09 21:04:14;;;;;;;1.42;0.57;;;;;;;;;;10146413;29;20045;-79
2023/11/09 21:09:35;;;;;;;1.35;0.70;;;;;;;;;;10841809;23;20547;-75
2023/11/09 21:20:48;;;;;;;0.60;0.60;;;;;;;;;;10160102;29;20053;-75
2023/11/09 21:26:06;;;;;;;1.48;0.50;;;;;;;;;;10146541;29;20084;-77
2023/11/09 21:31:10;;;;;;;0.75;0.50;;;;;;;;;;10087203;29;20049;-76
2023/11/09 21:36:16;;;;;;;1.23;0.40;;;;;;;;;;10091001;29;20088;-77
2023/11/09 21:41:20;;;;;;;0.50;0.50;;;;;;;;;;10091582;29;20592;-76
2023/11/09 21:46:23;;;;;;;1.77;0.93;;;;;;;;;;10095373;29;20045;-77
2023/11/09 21:51:28;;;;;;;1.77;0.95;;;;;;;;;;10098733;29;20052;-77
2023/11/09 21:56:31;;;;;;;2.90;0.70;;;;;;;;;;10092080;29;20075;-77
2023/11/09 22:01:36;;;;;;;1.10;0.80;;;;;;;;;;10092573;29;20516;-77
2023/11/09 22:06:41;;;;;;;2.47;1.67;;;;;;;;;;10090787;29;20057;-76
2023/11/09 22:11:44;;;;;;;2.20;1.50;;;;;;;;;;10091096;29;20057;-76
2023/11/09 22:16:47;;;;;;;3.38;1.42;;;;;;;;;;10092950;29;20506;-77
2023/11/09 22:21:52;;;;;;;1.30;0.77;;;;;;;;;;10073681;29;20131;-76
2023/11/09 22:26:56;;;;;;;5.68;1.17;;;;;;;;;;10089208;29;20554;-76
2023/11/09 22:31:59;;;;;;;3.03;1.80;;;;;;;;;;10088525;29;20049;-76
2023/11/09 22:37:04;;;;;;;2.75;1.92;;;;;;;;;;10088915;29;20049;-76
2023/11/09 22:42:08;;;;;;;3.33;2.40;;;;;;;;;;10095130;29;20059;-76
2023/11/09 22:47:12;;;;;;;2.22;1.35;;;;;;;;;;10088966;29;20049;-76
2023/11/09 22:52:17;;;;;;;1.83;1.13;;;;;;;;;;10087348;29;20140;-76
2023/11/09 22:57:20;;;;;;;3.13;1.30;;;;;;;;;;10075802;29;20109;-76
2023/11/09 23:02:23;;;;;;;2.47;1.42;;;;;;;;;;10088442;29;20055;-76
2023/11/09 23:07:30;;;;;;;1.27;0.98;;;;;;;;;;10088486;29;20057;-76
2023/11/09 23:12:33;;;;;;;0.70;0.70;;;;;;;;;;10082709;29;20052;-76
2023/11/09 23:17:37;;;;;;;1.33;0.63;;;;;;;;;;10087693;29;20122;-77
2023/11/09 23:22:42;;;;;;;2.08;1.17;;;;;;;;;;10071177;29;20044;-79
2023/11/09 23:27:46;;;;;;;2.23;0.83;;;;;;;;;;10087552;29;20053;-76
2023/11/09 23:32:49;;;;;;;1.10;0.55;;;;;;;;;;10091319;29;20132;-77
2023/11/09 23:37:54;;;;;;;2.30;0.77;;;;;;;;;;10119055;29;20064;-76
2023/11/09 23:42:58;;;;;;;1.85;1.17;;;;;;;;;;10114606;29;20147;-77
2023/11/09 23:48:01;;;;;;;3.05;1.38;;;;;;;;;;10098698;29;20051;-76
2023/11/09 23:53:06;;;;;;;2.38;0.80;;;;;;;;;;10115507;29;20048;-76
2023/11/09 23:58:09;;;;;;;5.03;1.63;;;;;;;;;;10115494;29;20510;-76
